»·PEaware :: N132KT KBUR-KSFO

N132KT :: KBUR-KSFO

FLIGHT INFORMATION

Flight Status: Arrived
Operator: Privately registered:
United States
More flights under this callsign
Pilot: Keith S. (1)
Aircraft: MITSUBISHI MU-2 MARQUISE
(MU2)
More flights by this aircraft type
Origin: KBUR Bob Hope-Burbank
United States
Destination: KSFO San Francisco Intl
United States
More flights between these airports :: More routes between these airports
Route: +VNY3 AVE V137 SNS V87 SFO
File this flight plan on PilotEdge
Remarks: NEWRM
Altitude:
(Current/Filed)
24,000ft
Speed:
(Current/Filed)
320kts
Departed: 27-Feb-19 09:33 AM
Arrived: 27-Feb-19 11:32 AM
Distance/Time
Traveled:
283nm/1:59
Distance/Time
To Go:
Arrived

Flight Plot

Page will automatically refresh every two minutes.

Flight plan parsing failed; only flown route is shown


Map Options




Map Legend


Flown Route
Filed Route
Departure Airport
Arrival Airport
Navaid (VOR, NDB)
Fix

Horizontal Profiles

Position Reports

Time Latitude Longitude Heading Altitude Ground
Speed
27-Feb-19 09:16 34.210739 -118.357947 257 734ft 0kts
27-Feb-19 09:17 34.210739 -118.357947 257 734ft 0kts
27-Feb-19 09:18 34.210739 -118.357947 257 734ft 0kts
27-Feb-19 09:20 34.210739 -118.357947 257 734ft 0kts
27-Feb-19 09:21 34.210739 -118.357947 257 734ft 0kts
27-Feb-19 09:22 34.210739 -118.357947 257 734ft 0kts
27-Feb-19 09:23 34.210739 -118.357947 257 734ft 0kts
27-Feb-19 09:24 34.210739 -118.357947 257 734ft 0kts
27-Feb-19 09:25 34.210739 -118.357947 257 734ft 0kts
27-Feb-19 09:26 34.210739 -118.357947 257 734ft 0kts
27-Feb-19 09:27 34.210740 -118.357948 258 734ft 0kts
27-Feb-19 09:28 34.210739 -118.357948 257 734ft 0kts
27-Feb-19 09:29 34.210739 -118.357948 257 734ft 0kts
27-Feb-19 09:30 34.210739 -118.357949 257 734ft 0kts
27-Feb-19 09:31 34.211634 -118.359093 331 734ft 6kts
27-Feb-19 09:32 34.211570 -118.360246 168 734ft 0kts
27-Feb-19 09:33 34.177867 -118.360402 219 1440ft 184kts
27-Feb-19 09:34 34.138237 -118.404187 226 3416ft 193kts
27-Feb-19 09:35 34.150775 -118.454825 347 5130ft 209kts
27-Feb-19 09:36 34.209991 -118.463217 351 7238ft 219kts
27-Feb-19 09:37 34.265008 -118.492012 325 8971ft 234kts
27-Feb-19 09:37 34.313110 -118.524939 326 10328ft 238kts
27-Feb-19 09:39 34.369499 -118.563347 325 11933ft 245kts
27-Feb-19 09:40 34.369499 -118.563347 325 11933ft 245kts
27-Feb-19 09:41 34.369499 -118.563347 325 11933ft 245kts
27-Feb-19 09:41 34.369499 -118.563347 325 11933ft 245kts
27-Feb-19 09:43 34.369499 -118.563347 325 11933ft 245kts
27-Feb-19 09:44 34.369499 -118.563347 325 11933ft 245kts
27-Feb-19 10:01 34.200203 -118.358745 263 734ft 0kts
27-Feb-19 10:02 34.200203 -118.358745 263 734ft 0kts
27-Feb-19 10:03 34.200203 -118.358746 265 734ft 0kts
27-Feb-19 10:04 34.200203 -118.358746 264 734ft 0kts
27-Feb-19 10:05 34.200203 -118.358746 264 734ft 0kts
27-Feb-19 10:06 34.200203 -118.358746 264 734ft 0kts
27-Feb-19 10:07 34.200203 -118.358746 264 734ft 0kts
27-Feb-19 10:08 34.198890 -118.358102 77 734ft 0kts
27-Feb-19 10:09 34.201972 -118.358766 346 734ft 14kts
27-Feb-19 10:10 34.206275 -118.359964 347 734ft 16kts
27-Feb-19 10:11 34.210701 -118.361142 348 734ft 16kts
27-Feb-19 10:12 34.211966 -118.361413 28 734ft 0kts
27-Feb-19 10:13 34.202979 -118.357887 167 760ft 139kts
27-Feb-19 10:14 34.162265 -118.381566 227 2571ft 191kts
27-Feb-19 10:15 34.123874 -118.428827 259 4602ft 205kts
27-Feb-19 10:16 34.163226 -118.456021 348 6857ft 200kts
27-Feb-19 10:17 34.219838 -118.466494 349 8942ft 211kts
27-Feb-19 10:18 34.278551 -118.473177 351 11106ft 218kts
27-Feb-19 10:19 34.333334 -118.503448 321 12025ft 239kts
27-Feb-19 10:20 34.392742 -118.549169 324 12185ft 261kts
27-Feb-19 10:21 34.454199 -118.595546 323 13436ft 260kts
27-Feb-19 10:22 34.513948 -118.640658 322 15158ft 248kts
27-Feb-19 10:23 34.571636 -118.684397 321 16814ft 246kts
27-Feb-19 10:24 34.629692 -118.728467 320 18449ft 247kts
27-Feb-19 10:25 34.688379 -118.773088 319 20069ft 249kts
27-Feb-19 10:26 34.747508 -118.818105 319 21669ft 252kts
27-Feb-19 10:27 34.806757 -118.863599 317 23242ft 253kts
27-Feb-19 10:28 34.866311 -118.912418 316 24176ft 269kts
27-Feb-19 10:29 34.930033 -118.964550 316 24164ft 281kts
27-Feb-19 10:30 34.995897 -119.018634 315 24155ft 287kts
27-Feb-19 10:31 35.062570 -119.073552 314 24152ft 291kts
27-Feb-19 10:32 35.129911 -119.129126 314 24144ft 292kts
27-Feb-19 10:33 35.197293 -119.184812 314 24143ft 292kts
27-Feb-19 10:34 35.264755 -119.240702 314 24143ft 292kts
27-Feb-19 10:35 35.331764 -119.296320 314 24143ft 292kts
27-Feb-19 10:36 35.399015 -119.352253 314 24143ft 291kts
27-Feb-19 10:37 35.466180 -119.408231 314 24143ft 291kts
27-Feb-19 10:38 35.533206 -119.464208 314 24143ft 291kts
27-Feb-19 10:39 35.566812 -119.542356 277 24142ft 256kts
27-Feb-19 10:40 35.583164 -119.627681 276 24141ft 255kts
27-Feb-19 10:41 35.598657 -119.712183 275 24152ft 256kts
27-Feb-19 10:42 35.614338 -119.798153 275 24150ft 257kts
27-Feb-19 10:43 35.629979 -119.884296 275 24142ft 258kts
27-Feb-19 10:44 35.646130 -119.970147 285 24124ft 264kts
27-Feb-19 10:45 35.694185 -120.043489 301 24131ft 278kts
27-Feb-19 10:46 35.745526 -120.114502 301 24134ft 278kts
27-Feb-19 10:47 35.797087 -120.185867 301 24133ft 278kts
27-Feb-19 10:48 35.848433 -120.257102 301 24129ft 278kts
27-Feb-19 10:49 35.899853 -120.328595 301 24132ft 278kts
27-Feb-19 10:50 35.951136 -120.400051 301 24132ft 278kts
27-Feb-19 10:51 36.002268 -120.471456 301 24129ft 278kts
27-Feb-19 10:52 36.053399 -120.542995 301 24127ft 278kts
27-Feb-19 10:53 36.103912 -120.613834 301 24123ft 277kts
27-Feb-19 10:54 36.149588 -120.681846 295 24131ft 272kts
27-Feb-19 10:55 36.192775 -120.757926 294 24131ft 272kts
27-Feb-19 10:56 36.236112 -120.834883 294 24130ft 272kts
27-Feb-19 10:57 36.279446 -120.912019 294 24129ft 272kts
27-Feb-19 10:58 36.322594 -120.988969 294 24124ft 272kts
27-Feb-19 10:59 36.365841 -121.066269 295 24096ft 273kts
27-Feb-19 11:00 36.409207 -121.143968 295 24075ft 274kts
27-Feb-19 11:01 36.452783 -121.222188 295 24080ft 274kts
27-Feb-19 11:02 36.496087 -121.300138 295 24080ft 275kts
27-Feb-19 11:03 36.539578 -121.378615 295 24080ft 275kts
27-Feb-19 11:04 36.582910 -121.456973 295 24079ft 275kts
27-Feb-19 11:05 36.626286 -121.535599 295 24056ft 275kts
27-Feb-19 11:06 36.671989 -121.616332 300 23241ft 297kts
27-Feb-19 11:07 36.725188 -121.695968 301 22392ft 303kts
27-Feb-19 11:08 36.779649 -121.777097 301 21598ft 304kts
27-Feb-19 11:09 36.834060 -121.858277 301 20824ft 305kts
27-Feb-19 11:10 36.888208 -121.939304 301 20060ft 301kts
27-Feb-19 11:11 36.941660 -122.019227 302 19278ft 297kts
27-Feb-19 11:12 37.004432 -122.087100 330 18346ft 311kts
27-Feb-19 11:13 37.085373 -122.125171 332 15483ft 308kts
27-Feb-19 11:14 37.159193 -122.159668 333 13110ft 300kts
27-Feb-19 11:15 37.236321 -122.194550 334 10699ft 291kts
27-Feb-19 11:16 37.311623 -122.229926 335 8385ft 285kts
27-Feb-19 11:17 37.382746 -122.262322 335 7990ft 281kts
27-Feb-19 11:18 37.458665 -122.298999 336 7698ft 290kts
27-Feb-19 11:19 37.534070 -122.334658 336 6671ft 287kts
27-Feb-19 11:20 37.608722 -122.370017 337 5558ft 285kts
27-Feb-19 11:21 37.686117 -122.389760 350 4957ft 270kts
27-Feb-19 11:22 37.758657 -122.396350 19 3972ft 249kts
27-Feb-19 11:23 37.819764 -122.369438 21 3981ft 223kts
27-Feb-19 11:24 37.843706 -122.316238 111 3353ft 196kts
27-Feb-19 11:25 37.825072 -122.255422 145 2953ft 163kts
27-Feb-19 11:26 37.784513 -122.263603 192 2854ft 152kts
27-Feb-19 11:27 37.744481 -122.290910 202 2725ft 164kts
27-Feb-19 11:28 37.705253 -122.316020 207 1993ft 160kts
27-Feb-19 11:29 37.664172 -122.342897 205 1518ft 158kts
27-Feb-19 11:30 37.630543 -122.365051 202 153ft 115kts
27-Feb-19 11:31 37.621609 -122.372705 297 16ft 27kts
27-Feb-19 11:33 37.624388 -122.379378 297 16ft 27kts

Navigation Log

Ident Type
Flight plan parsing failed, navigation log unavailable